createdAt,value
2017-07-06T00:00:44.927Z,15.19
2017-07-06T00:01:59.561Z,15.02
2017-07-06T00:02:44.978Z,15.11
2017-07-06T00:04:45.036Z,15.03
2017-07-06T00:06:45.074Z,15.06
2017-07-06T00:07:45.095Z,14.94
2017-07-06T00:08:59.731Z,14.72
2017-07-06T00:09:45.128Z,14.78
2017-07-06T00:10:45.181Z,14.69
2017-07-06T00:11:45.195Z,14.65
2017-07-06T00:12:45.232Z,14.65
2017-07-06T00:13:45.226Z,14.69
2017-07-06T00:14:45.254Z,14.6
2017-07-06T00:15:45.295Z,14.62
2017-07-06T00:16:45.328Z,14.68
2017-07-06T00:17:45.376Z,14.6
2017-07-06T00:18:45.366Z,14.6
2017-07-06T00:19:45.068Z,14.61
2017-07-06T00:20:45.411Z,14.61
2017-07-06T00:21:45.116Z,14.68
2017-07-06T00:22:45.456Z,14.65
2017-07-06T00:24:45.506Z,14.61
2017-07-06T00:26:00.127Z,14.65
2017-07-06T00:26:45.555Z,14.75
2017-07-06T00:27:45.254Z,14.77
2017-07-06T00:28:45.585Z,14.83
2017-07-06T00:29:45.610Z,14.72
2017-07-06T00:30:45.637Z,14.73
2017-07-06T00:31:45.667Z,14.73
2017-07-06T00:32:45.681Z,14.73
2017-07-06T00:33:45.730Z,14.84
2017-07-06T00:34:45.091Z,14.8
2017-07-06T00:35:45.760Z,14.8
2017-07-06T00:37:45.811Z,14.78
2017-07-06T00:38:45.195Z,14.72
2017-07-06T00:39:45.850Z,14.81
2017-07-06T00:41:00.473Z,14.77
2017-07-06T00:42:00.489Z,14.75
2017-07-06T00:42:45.928Z,14.81
2017-07-06T00:44:00.546Z,14.7
2017-07-06T00:44:45.654Z,14.64
2017-07-06T00:45:45.674Z,14.7
2017-07-06T00:46:46.019Z,14.54
2017-07-06T00:47:45.710Z,14.62
2017-07-06T00:48:46.064Z,14.54
2017-07-06T00:49:46.069Z,14.55
2017-07-06T00:50:46.165Z,14.43
2017-07-06T00:51:46.128Z,14.39
2017-07-06T00:52:46.158Z,14.37
2017-07-06T00:53:45.851Z,14.4
2017-07-06T00:54:45.871Z,14.46
2017-07-06T00:55:46.232Z,14.45
2017-07-06T00:57:00.837Z,14.35
2017-07-06T00:57:46.269Z,14.22
2017-07-06T00:58:45.984Z,14.21
2017-07-06T01:00:00.906Z,14.07
2017-07-06T01:01:00.945Z,14.12
2017-07-06T01:01:46.366Z,14.07
2017-07-06T01:02:46.427Z,14.2
2017-07-06T01:03:46.414Z,14.18
2017-07-06T01:05:01.031Z,14.22
2017-07-06T01:06:01.056Z,14.32
2017-07-06T01:06:46.171Z,14.21
2017-07-06T01:07:46.504Z,14.25
2017-07-06T01:08:46.534Z,14.32
2017-07-06T01:09:46.542Z,14.2
2017-07-06T01:10:45.946Z,14.17
2017-07-06T01:11:46.596Z,14.2
2017-07-06T01:13:01.224Z,14.07
2017-07-06T01:13:46.321Z,14.06
2017-07-06T01:14:46.665Z,14.1
2017-07-06T01:15:46.680Z,14.14
2017-07-06T01:16:46.721Z,14.1
2017-07-06T01:17:46.746Z,14.1
2017-07-06T01:18:46.764Z,14.09
2017-07-06T01:19:46.449Z,14.17
2017-07-06T01:20:46.807Z,14.1
2017-07-06T01:21:46.822Z,14.17
2017-07-06T01:22:46.845Z,14.27
2017-07-06T01:23:46.543Z,14.2
2017-07-06T01:24:46.902Z,14.14
2017-07-06T01:25:46.611Z,14.03
2017-07-06T01:26:46.950Z,14.07
2017-07-06T01:27:46.970Z,14
2017-07-06T01:29:01.271Z,14.1
2017-07-06T01:29:47.011Z,14.06
2017-07-06T01:30:47.028Z,14.07
2017-07-06T01:32:01.345Z,14.09
2017-07-06T01:32:46.777Z,14.09
2017-07-06T01:33:46.791Z,14.07
2017-07-06T01:34:47.149Z,14.12
2017-07-06T01:35:46.506Z,14.21
2017-07-06T01:36:46.537Z,14.07
2017-07-06T01:37:46.560Z,14.09
2017-07-06T01:38:47.531Z,14.07
2017-07-06T01:39:47.226Z,14.06
2017-07-06T01:40:47.273Z,14.09
2017-07-06T01:41:46.976Z,14.09
2017-07-06T01:42:46.999Z,14.06
2017-07-06T01:44:01.936Z,14.06
2017-07-06T01:44:47.373Z,14.04
2017-07-06T01:46:01.973Z,14.04
2017-07-06T01:46:47.409Z,14.04
2017-07-06T01:47:47.434Z,14.02
2017-07-06T01:48:47.459Z,13.95
2017-07-06T01:49:47.484Z,13.88
2017-07-06T01:50:47.481Z,13.89
2017-07-06T01:52:02.124Z,13.91
2017-07-06T01:52:47.544Z,13.97
2017-07-06T01:53:47.250Z,13.97
2017-07-06T01:54:47.582Z,13.95
2017-07-06T01:55:47.616Z,13.91
2017-07-06T01:56:47.638Z,13.97
2017-07-06T01:57:47.337Z,14.03
2017-07-06T01:58:47.368Z,14.07
2017-07-06T02:00:02.296Z,13.97
2017-07-06T02:00:47.740Z,14.09
2017-07-06T02:01:47.755Z,14.04
2017-07-06T02:03:47.810Z,14.09
2017-07-06T02:04:47.806Z,14.07
2017-07-06T02:05:47.839Z,14.06
2017-07-06T02:07:02.469Z,14.1
2017-07-06T02:07:47.892Z,14.1
2017-07-06T02:08:47.920Z,14.14
2017-07-06T02:10:02.536Z,14.1
2017-07-06T02:10:47.964Z,14.15
2017-07-06T02:11:47.976Z,14.14
2017-07-06T02:12:48.005Z,14.12
2017-07-06T02:13:48.024Z,14.09
2017-07-06T02:14:47.727Z,14.12
2017-07-06T02:16:02.357Z,14.09
2017-07-06T02:16:48.098Z,14.1
2017-07-06T02:17:48.117Z,14.07
2017-07-06T02:18:48.141Z,14.14
2017-07-06T02:19:48.173Z,14.1
2017-07-06T02:20:48.199Z,14.09
2017-07-06T02:22:48.237Z,14.09
2017-07-06T02:23:47.931Z,14.04
2017-07-06T02:24:47.973Z,14.1
2017-07-06T02:25:47.980Z,14.12
2017-07-06T02:26:48.334Z,14.07
2017-07-06T02:28:48.375Z,14.06
2017-07-06T02:29:48.075Z,14.22
2017-07-06T02:30:48.406Z,14.21
2017-07-06T02:32:48.450Z,14.28
2017-07-06T02:33:48.182Z,14.2
2017-07-06T02:34:48.515Z,14.28
2017-07-06T02:35:48.541Z,14.21
2017-07-06T02:36:48.561Z,14.22
2017-07-06T02:37:48.596Z,14.18
2017-07-06T02:38:48.280Z,14.2
2017-07-06T02:40:03.229Z,14.2
2017-07-06T02:40:48.316Z,14.28
2017-07-06T02:41:48.681Z,14.35
2017-07-06T02:42:48.685Z,14.37
2017-07-06T02:43:48.729Z,14.4
2017-07-06T02:44:48.750Z,14.46
2017-07-06T02:45:48.770Z,14.46
2017-07-06T02:46:48.770Z,14.4
2017-07-06T02:48:03.400Z,14.46
2017-07-06T02:48:48.522Z,14.43
2017-07-06T02:49:48.849Z,14.39
2017-07-06T02:51:03.491Z,14.4
2017-07-06T02:51:48.910Z,14.5
2017-07-06T02:53:03.534Z,14.37
2017-07-06T02:53:48.956Z,14.42
2017-07-06T02:54:48.969Z,14.45
2017-07-06T02:55:49.005Z,14.47
2017-07-06T02:56:49.017Z,14.5
2017-07-06T02:57:49.048Z,14.52
2017-07-06T02:59:49.081Z,14.45
2017-07-06T03:00:49.101Z,14.45
2017-07-06T03:01:49.142Z,14.4
2017-07-06T03:02:49.160Z,14.4
2017-07-06T03:04:03.777Z,14.46
2017-07-06T03:05:03.816Z,14.42
2017-07-06T03:05:49.231Z,14.37
2017-07-06T03:06:49.249Z,14.42
2017-07-06T03:07:48.966Z,14.4
2017-07-06T03:08:49.307Z,14.54
2017-07-06T03:09:49.318Z,14.58
2017-07-06T03:10:49.334Z,14.6
2017-07-06T03:11:49.356Z,14.61
2017-07-06T03:12:49.394Z,14.61
2017-07-06T03:14:04.008Z,14.7
2017-07-06T03:14:49.437Z,14.6
2017-07-06T03:15:49.140Z,14.61
2017-07-06T03:16:49.490Z,14.64
2017-07-06T03:17:49.511Z,14.64
2017-07-06T03:19:04.121Z,14.62
2017-07-06T03:19:49.567Z,14.61
2017-07-06T03:20:49.567Z,14.6
2017-07-06T03:21:49.607Z,14.6
2017-07-06T03:22:49.302Z,14.62
2017-07-06T03:23:49.328Z,14.57
2017-07-06T03:24:49.659Z,14.52
2017-07-06T03:25:49.701Z,14.51
2017-07-06T03:26:49.392Z,14.62
2017-07-06T03:28:04.337Z,14.5
2017-07-06T03:28:49.764Z,14.52
2017-07-06T03:29:49.788Z,14.51
2017-07-06T03:30:49.812Z,14.5
2017-07-06T03:31:49.840Z,14.43
2017-07-06T03:32:49.853Z,14.43
2017-07-06T03:33:49.565Z,14.5
2017-07-06T03:34:49.887Z,14.5
2017-07-06T03:35:49.284Z,14.51
2017-07-06T03:36:49.946Z,14.54
2017-07-06T03:38:49.994Z,14.62
2017-07-06T03:39:50.017Z,14.52
2017-07-06T03:40:50.045Z,14.64
2017-07-06T03:41:50.049Z,14.73
2017-07-06T03:42:50.092Z,14.8
2017-07-06T03:43:50.096Z,14.81
2017-07-06T03:44:50.153Z,14.75
2017-07-06T03:45:50.153Z,14.88
2017-07-06T03:46:50.189Z,15.09
2017-07-06T03:47:50.190Z,15.21
2017-07-06T03:48:50.218Z,15.29
2017-07-06T03:49:50.251Z,15.28
2017-07-06T03:51:04.865Z,15.27
2017-07-06T03:51:50.295Z,15.29
2017-07-06T03:52:50.309Z,15.28
2017-07-06T03:54:50.346Z,15.23
2017-07-06T03:55:50.077Z,15.28
2017-07-06T03:56:50.439Z,15.21
2017-07-06T03:57:50.462Z,15.1
2017-07-06T03:58:50.446Z,15.2
2017-07-06T03:59:50.492Z,15.14
2017-07-06T04:00:50.551Z,15.14
2017-07-06T04:01:50.214Z,15.14
2017-07-06T04:02:50.232Z,15.09
2017-07-06T04:03:50.580Z,15.11
2017-07-06T04:04:50.576Z,15.11
2017-07-06T04:05:50.602Z,15.13
2017-07-06T04:07:04.930Z,15.13
2017-07-06T04:07:50.648Z,15.07
2017-07-06T04:08:50.696Z,15.14
2017-07-06T04:09:50.704Z,15.14
2017-07-06T04:10:50.738Z,15.19
2017-07-06T04:11:50.748Z,15.14
2017-07-06T04:12:50.783Z,15.28
2017-07-06T04:13:50.823Z,15.36
2017-07-06T04:14:50.516Z,15.43
2017-07-06T04:15:50.869Z,15.53
2017-07-06T04:16:50.868Z,15.44
2017-07-06T04:17:50.898Z,15.51
2017-07-06T04:18:50.915Z,15.62
2017-07-06T04:19:50.953Z,15.71
2017-07-06T04:20:50.962Z,15.68
2017-07-06T04:21:50.685Z,15.89
2017-07-06T04:23:05.294Z,15.93
2017-07-06T04:23:50.771Z,16.02
2017-07-06T04:24:51.068Z,16.09
2017-07-06T04:26:05.693Z,16.12
2017-07-06T04:26:51.103Z,16.2
2017-07-06T04:27:51.147Z,16.25
2017-07-06T04:28:51.148Z,16.24
2017-07-06T04:29:51.177Z,16.24
2017-07-06T04:31:50.914Z,16.35
2017-07-06T04:33:51.274Z,16.33
2017-07-06T04:34:51.305Z,16.41
2017-07-06T04:35:51.325Z,16.42
2017-07-06T04:36:51.339Z,16.48
2017-07-06T04:37:50.743Z,16.34
2017-07-06T04:39:05.669Z,16.41
2017-07-06T04:39:51.097Z,16.48
2017-07-06T04:40:51.450Z,16.49
2017-07-06T04:41:51.510Z,16.52
2017-07-06T04:42:51.497Z,16.61
2017-07-06T04:43:51.502Z,16.68
2017-07-06T04:44:51.548Z,16.78
2017-07-06T04:45:51.562Z,16.68
2017-07-06T04:46:51.594Z,16.82
2017-07-06T04:47:51.603Z,17.21
2017-07-06T04:48:51.637Z,17.36
2017-07-06T04:50:06.258Z,17.41
2017-07-06T04:50:51.688Z,17.33
2017-07-06T04:51:51.711Z,17.19
2017-07-06T04:52:51.741Z,17.16
2017-07-06T04:54:51.785Z,17.19
2017-07-06T04:55:51.793Z,17.19
2017-07-06T04:57:06.420Z,17.08
2017-07-06T04:57:51.527Z,17.03
2017-07-06T04:58:51.887Z,17.15
2017-07-06T04:59:51.907Z,17.06
2017-07-06T05:00:51.906Z,17.07
2017-07-06T05:01:51.951Z,17.04
2017-07-06T05:02:51.965Z,17.06
2017-07-06T05:03:52.011Z,17.04
2017-07-06T05:04:51.694Z,17.16
2017-07-06T05:05:52.042Z,17.16
2017-07-06T05:06:52.078Z,17.26
2017-07-06T05:07:52.098Z,17.33
2017-07-06T05:08:52.107Z,17.38
2017-07-06T05:09:52.124Z,17.41
2017-07-06T05:10:52.177Z,17.54
2017-07-06T05:11:52.172Z,17.43
2017-07-06T05:12:52.210Z,17.56
2017-07-06T05:14:06.839Z,17.41
2017-07-06T05:14:52.251Z,17.36
2017-07-06T05:15:52.276Z,17.36
2017-07-06T05:16:52.318Z,17.36
2017-07-06T05:17:52.328Z,17.46
2017-07-06T05:18:52.369Z,17.52
2017-07-06T05:19:52.365Z,17.66
2017-07-06T05:20:52.407Z,17.75
2017-07-06T05:21:52.421Z,17.82
2017-07-06T05:22:52.455Z,17.89
2017-07-06T05:23:51.831Z,17.92
2017-07-06T05:24:52.500Z,17.96
2017-07-06T05:26:07.118Z,18.26
2017-07-06T05:26:52.548Z,18.41
2017-07-06T05:27:52.265Z,18.54
2017-07-06T05:28:52.593Z,18.6
2017-07-06T05:29:52.313Z,18.67
2017-07-06T05:31:52.684Z,19.11
2017-07-06T05:32:52.692Z,19.18
2017-07-06T05:33:52.399Z,19.28
2017-07-06T05:34:52.426Z,19.41
2017-07-06T05:35:52.767Z,19.56
2017-07-06T05:36:52.793Z,19.68
2017-07-06T05:37:52.809Z,19.48
2017-07-06T05:38:52.524Z,19.56
2017-07-06T05:39:52.865Z,19.55
2017-07-06T05:42:07.510Z,20.02
2017-07-06T05:42:52.637Z,20.21
2017-07-06T05:43:52.638Z,20.36
2017-07-06T05:44:52.996Z,20.51
2017-07-06T05:45:52.388Z,20.42
2017-07-06T05:46:52.729Z,20.35
2017-07-06T05:47:52.748Z,20.29
2017-07-06T05:48:53.100Z,20.28
2017-07-06T05:49:53.126Z,20.5
2017-07-06T05:50:52.846Z,20.62
2017-07-06T05:51:53.166Z,20.7
2017-07-06T05:52:53.203Z,20.8
2017-07-06T05:54:07.822Z,21.34
2017-07-06T05:54:53.254Z,21.82
2017-07-06T05:55:53.281Z,22.2
2017-07-06T05:56:53.291Z,22.55
2017-07-06T05:58:07.931Z,23.01
2017-07-06T05:58:53.335Z,23
2017-07-06T05:59:53.396Z,23.28
2017-07-06T06:00:53.729Z,23.48
2017-07-06T06:01:53.432Z,23.55
2017-07-06T06:02:53.136Z,23.25
2017-07-06T06:03:53.480Z,23.1
2017-07-06T06:04:53.200Z,23
2017-07-06T06:05:53.583Z,22.92
2017-07-06T06:06:53.574Z,23.05
2017-07-06T06:07:53.273Z,23.32
2017-07-06T06:08:53.688Z,23.32
2017-07-06T06:09:53.646Z,23.31
2017-07-06T06:10:53.679Z,23.15
2017-07-06T06:11:53.390Z,22.85
2017-07-06T06:12:53.714Z,22.67
2017-07-06T06:14:08.349Z,22.27
2017-07-06T06:14:53.788Z,22.06
2017-07-06T06:15:53.482Z,21.98
2017-07-06T06:16:53.572Z,22.06
2017-07-06T06:18:53.563Z,22.03
2017-07-06T06:19:53.601Z,22.24
2017-07-06T06:20:53.938Z,22.25
2017-07-06T06:21:53.974Z,22.27
2017-07-06T06:22:53.986Z,21.91
2017-07-06T06:23:53.716Z,21.98
2017-07-06T06:24:53.733Z,22
2017-07-06T06:25:54.069Z,22.02
2017-07-06T06:26:53.474Z,22.15
2017-07-06T06:27:54.130Z,22.37
2017-07-06T06:29:08.760Z,22.4
2017-07-06T06:29:54.166Z,22.55
2017-07-06T06:30:54.200Z,22.65
2017-07-06T06:31:54.237Z,22.77
2017-07-06T06:32:53.939Z,22.85
2017-07-06T06:33:53.659Z,22.49
2017-07-06T06:34:54.314Z,22.37
2017-07-06T06:35:54.407Z,22.51
2017-07-06T06:36:54.359Z,22.68
2017-07-06T06:37:54.411Z,22.7
2017-07-06T06:38:54.419Z,23.2
2017-07-06T06:39:54.124Z,24.21
2017-07-06T06:40:54.153Z,25.27
2017-07-06T06:42:54.536Z,26.63
2017-07-06T06:43:54.574Z,26.58
2017-07-06T06:44:54.575Z,26.28
2017-07-06T06:45:54.303Z,26.02
2017-07-06T06:46:54.319Z,25.65
2017-07-06T06:47:54.677Z,25.33
2017-07-06T06:48:54.692Z,25.27
2017-07-06T06:49:54.730Z,24.93
2017-07-06T06:50:54.133Z,24.78
2017-07-06T06:51:54.774Z,24.53
2017-07-06T06:52:54.820Z,24.35
2017-07-06T06:53:54.206Z,24.37
2017-07-06T06:54:54.557Z,24.37
2017-07-06T06:55:54.898Z,24.1
2017-07-06T06:57:09.532Z,24.42
2017-07-06T06:57:54.967Z,24.76
2017-07-06T06:58:54.985Z,24.95
2017-07-06T06:59:55.028Z,24.8
2017-07-06T07:01:09.645Z,24.69
2017-07-06T07:02:55.104Z,24.68
2017-07-06T07:03:54.927Z,25.25
2017-07-06T07:04:55.151Z,25.99
2017-07-06T07:05:55.204Z,26.05
2017-07-06T07:06:55.258Z,26.01
2017-07-06T07:07:54.988Z,26.2
2017-07-06T07:09:09.877Z,27.44
2017-07-06T07:09:55.312Z,28
2017-07-06T07:10:55.335Z,28.62
2017-07-06T07:11:55.042Z,29.24
2017-07-06T07:12:55.398Z,29.6
2017-07-06T07:13:55.104Z,29.49
2017-07-06T07:14:55.476Z,29.39
2017-07-06T07:15:55.477Z,29.49
2017-07-06T07:17:10.271Z,30.13
2017-07-06T07:17:54.922Z,30.02
2017-07-06T07:18:55.584Z,30.31
2017-07-06T07:19:55.310Z,30.46
2017-07-06T07:20:55.328Z,30.47
2017-07-06T07:22:09.969Z,30.6
2017-07-06T07:23:09.998Z,31.5
2017-07-06T07:23:55.749Z,31.56
2017-07-06T07:24:55.857Z,31.93
2017-07-06T07:25:55.821Z,31.48
2017-07-06T07:27:10.455Z,31.8
2017-07-06T07:27:56.035Z,31.43
2017-07-06T07:29:55.949Z,31.86
2017-07-06T07:30:55.657Z,32.03
2017-07-06T07:31:56.031Z,31.85
2017-07-06T07:33:10.633Z,32.47
2017-07-06T07:33:56.251Z,33
2017-07-06T07:35:55.854Z,32.55
2017-07-06T07:36:55.596Z,32.25
2017-07-06T07:37:55.593Z,32.14
2017-07-06T07:39:10.548Z,31.48
2017-07-06T07:41:10.934Z,30.29
2017-07-06T07:41:56.047Z,30.27
2017-07-06T07:42:56.578Z,31.06
2017-07-06T07:43:56.413Z,30.83
2017-07-06T07:44:56.455Z,31.13
2017-07-06T07:45:56.551Z,31.7
2017-07-06T07:46:56.547Z,31.47
2017-07-06T07:48:11.182Z,31.63
2017-07-06T07:49:11.197Z,30.97
2017-07-06T07:49:56.340Z,30.83
2017-07-06T07:50:56.367Z,30.67
2017-07-06T07:51:56.696Z,31.02
2017-07-06T07:52:56.747Z,31.28
2017-07-06T07:53:56.781Z,31.5
2017-07-06T07:54:56.503Z,31.31
2017-07-06T07:55:56.835Z,30.95
2017-07-06T07:56:56.930Z,30.69
2017-07-06T07:57:56.920Z,30.47
2017-07-06T07:58:57.102Z,29.83
2017-07-06T07:59:56.973Z,29.53
2017-07-06T08:00:56.758Z,29.48
2017-07-06T08:01:57.055Z,29.24
2017-07-06T08:02:57.072Z,28.93
2017-07-06T08:04:11.402Z,28.83
2017-07-06T08:04:57.156Z,28.86
2017-07-06T08:05:57.273Z,28.66
2017-07-06T08:06:57.213Z,28.22
2017-07-06T08:07:56.920Z,27.88
2017-07-06T08:09:57.296Z,28.29
2017-07-06T08:10:57.031Z,28.4
2017-07-06T08:12:11.653Z,28.56
2017-07-06T08:12:57.408Z,28.18
2017-07-06T08:13:57.107Z,28.29
2017-07-06T08:14:56.834Z,28.27
2017-07-06T08:15:57.544Z,28.46
2017-07-06T08:16:57.215Z,28.61
2017-07-06T08:17:57.311Z,28.37
2017-07-06T08:18:57.613Z,28.59
2017-07-06T08:19:57.625Z,28.67
2017-07-06T08:20:57.668Z,28.78
2017-07-06T08:21:57.049Z,29.33
2017-07-06T08:22:57.087Z,29.98
2017-07-06T08:23:57.110Z,30.34
2017-07-06T08:24:57.784Z,30.46
2017-07-06T08:25:57.813Z,30.31
2017-07-06T08:26:57.847Z,30.01
2017-07-06T08:27:57.871Z,29.51
2017-07-06T08:28:57.905Z,29.51
2017-07-06T08:29:57.942Z,29.48
2017-07-06T08:30:57.765Z,29.36
2017-07-06T08:31:57.685Z,29.26
2017-07-06T08:32:58.030Z,29.09
2017-07-06T08:34:12.705Z,28.83
2017-07-06T08:34:58.095Z,28.78
2017-07-06T08:36:12.413Z,28.67
2017-07-06T08:36:58.152Z,28.66
2017-07-06T08:37:58.205Z,28.68
2017-07-06T08:38:58.205Z,29
2017-07-06T08:40:12.863Z,29.6
2017-07-06T08:40:57.958Z,29.7
2017-07-06T08:41:58.011Z,30.38
2017-07-06T08:42:58.493Z,31.04
2017-07-06T08:43:58.388Z,31.28
2017-07-06T08:44:58.421Z,31.73
2017-07-06T08:45:58.453Z,32.19
2017-07-06T08:46:58.482Z,32.38
2017-07-06T08:47:58.500Z,32.44
2017-07-06T08:48:58.651Z,31.85
2017-07-06T08:49:58.574Z,31.89
2017-07-06T08:50:58.622Z,31.73
2017-07-06T08:52:13.242Z,31.8
2017-07-06T08:53:58.705Z,31.89
2017-07-06T08:55:58.767Z,31.95
2017-07-06T08:56:58.818Z,31.88
2017-07-06T08:57:58.831Z,31.89
2017-07-06T08:58:58.660Z,31.85
2017-07-06T08:59:58.910Z,31.96
2017-07-06T09:00:58.947Z,32.4
2017-07-06T09:01:58.985Z,32.65
2017-07-06T09:02:59.060Z,32.65
2017-07-06T09:04:59.076Z,32.78
2017-07-06T09:05:58.814Z,33.19
2017-07-06T09:06:59.227Z,33.53
2017-07-06T09:08:13.782Z,33.41
2017-07-06T09:08:59.225Z,33.44
2017-07-06T09:10:13.988Z,32.75
2017-07-06T09:10:59.284Z,32.84
2017-07-06T09:11:58.995Z,32.78
2017-07-06T09:12:59.351Z,33.42
2017-07-06T09:13:59.368Z,33.19
2017-07-06T09:14:59.416Z,33.56
2017-07-06T09:17:14.089Z,33.22
2017-07-06T09:17:59.533Z,33.31
2017-07-06T09:18:59.537Z,33.32
2017-07-06T09:19:59.575Z,33.28
2017-07-06T09:20:59.613Z,32.82
2017-07-06T09:21:59.028Z,32.25
2017-07-06T09:22:59.422Z,31.53
2017-07-06T09:24:14.317Z,30.88
2017-07-06T09:24:59.765Z,30.86
2017-07-06T09:25:59.864Z,30.64
2017-07-06T09:26:59.342Z,30.13
2017-07-06T09:27:59.856Z,29.7
2017-07-06T09:28:59.261Z,29.34
2017-07-06T09:30:00.087Z,29.43
2017-07-06T09:30:59.644Z,28.85
2017-07-06T09:32:00.008Z,28.52
2017-07-06T09:33:00.076Z,28.61
2017-07-06T09:34:00.123Z,28.73
2017-07-06T09:35:00.098Z,28.77
2017-07-06T09:36:00.124Z,28.52
2017-07-06T09:37:00.312Z,28.67
2017-07-06T09:39:14.833Z,28.71
2017-07-06T09:40:00.269Z,28.78
2017-07-06T09:41:00.301Z,29.04
2017-07-06T09:42:00.011Z,29.48
2017-07-06T09:43:00.349Z,29.95
2017-07-06T09:44:00.591Z,30.35
2017-07-06T09:45:00.429Z,30.62
2017-07-06T09:46:00.458Z,30.7
2017-07-06T09:47:00.630Z,31.04
2017-07-06T09:48:00.522Z,31.65
2017-07-06T09:49:00.574Z,31.61
2017-07-06T09:50:00.634Z,31.35
2017-07-06T09:51:00.723Z,31.57
2017-07-06T09:52:00.636Z,31.89
2017-07-06T09:53:00.375Z,32.23
2017-07-06T09:54:00.712Z,32.44
2017-07-06T09:55:00.439Z,32.14
2017-07-06T09:56:00.467Z,32.13
2017-07-06T09:57:00.807Z,32.65
2017-07-06T09:58:00.842Z,33.03
2017-07-06T09:59:00.554Z,33.37
2017-07-06T10:00:00.603Z,33.38
2017-07-06T10:02:00.990Z,33.53
2017-07-06T10:03:01.008Z,33.69
2017-07-06T10:04:01.054Z,33.42
2017-07-06T10:05:01.078Z,33.59
2017-07-06T10:06:01.103Z,33.29
2017-07-06T10:07:01.146Z,32.72
2017-07-06T10:08:01.176Z,32.94
2017-07-06T10:09:01.411Z,33.44
2017-07-06T10:10:01.229Z,33.45
2017-07-06T10:11:15.562Z,33.37
2017-07-06T10:12:01.391Z,34.02
2017-07-06T10:13:01.341Z,34.32
2017-07-06T10:14:01.058Z,34.34
2017-07-06T10:15:01.405Z,34.35
2017-07-06T10:16:01.434Z,33.75
2017-07-06T10:17:01.478Z,33.19
2017-07-06T10:18:01.196Z,32.88
2017-07-06T10:19:01.225Z,32.08
2017-07-06T10:20:01.251Z,31.48
2017-07-06T10:21:01.289Z,31.47
2017-07-06T10:22:01.934Z,32.08
2017-07-06T10:23:01.082Z,32.56
2017-07-06T10:24:01.389Z,32.66
2017-07-06T10:25:01.633Z,32.55
2017-07-06T10:26:01.773Z,31.92
2017-07-06T10:27:16.395Z,31.58
2017-07-06T10:28:01.854Z,31.44
2017-07-06T10:29:01.859Z,31.54
2017-07-06T10:30:01.584Z,31.72
2017-07-06T10:31:01.713Z,32.06
2017-07-06T10:32:01.652Z,32.44
2017-07-06T10:33:02.017Z,32.14
2017-07-06T10:34:02.026Z,31.34
2017-07-06T10:35:16.763Z,30.8
2017-07-06T10:36:02.099Z,30.98
2017-07-06T10:37:02.139Z,31.35
2017-07-06T10:38:01.883Z,31.54
2017-07-06T10:39:02.212Z,31.63
2017-07-06T10:40:02.220Z,31.47
2017-07-06T10:41:02.329Z,31.43
2017-07-06T10:42:02.279Z,31.51
2017-07-06T10:43:16.616Z,31.88
2017-07-06T10:44:02.350Z,32.01
2017-07-06T10:45:02.487Z,31.76
2017-07-06T10:46:02.410Z,31.19
2017-07-06T10:47:02.468Z,30.75
2017-07-06T10:48:02.537Z,30.19
2017-07-06T10:49:02.530Z,29.97
2017-07-06T10:50:02.557Z,30.23
2017-07-06T10:51:02.483Z,30.13
2017-07-06T10:52:02.607Z,30.16
2017-07-06T10:53:02.332Z,30.11
2017-07-06T10:54:02.681Z,29.98
2017-07-06T10:55:02.395Z,30.02
2017-07-06T10:56:02.441Z,29.87
2017-07-06T10:57:02.456Z,29.65
2017-07-06T10:58:02.505Z,29.39
2017-07-06T10:59:17.124Z,29.3
2017-07-06T11:00:02.553Z,29.58
2017-07-06T11:01:02.899Z,29.71
2017-07-06T11:02:02.944Z,29.87
2017-07-06T11:04:03.113Z,30
2017-07-06T11:05:02.727Z,29.33
2017-07-06T11:07:03.110Z,29.26
2017-07-06T11:08:17.740Z,29.28
2017-07-06T11:09:02.859Z,29.28
2017-07-06T11:10:03.184Z,28.73
2017-07-06T11:11:03.294Z,28.64
2017-07-06T11:12:02.940Z,28.33
2017-07-06T11:13:02.997Z,28.33
2017-07-06T11:14:17.938Z,28.67
2017-07-06T11:15:02.733Z,29.04
2017-07-06T11:16:02.763Z,29.42
2017-07-06T11:17:18.017Z,29.87
2017-07-06T11:18:03.151Z,30.13
2017-07-06T11:19:03.487Z,30.31
2017-07-06T11:20:18.129Z,30.55
2017-07-06T11:21:03.237Z,30.43
2017-07-06T11:22:03.276Z,30.16
2017-07-06T11:23:03.595Z,30.07
2017-07-06T11:24:18.244Z,30.08
2017-07-06T11:25:03.684Z,30.2
2017-07-06T11:26:03.502Z,30.15
2017-07-06T11:27:03.742Z,30.15
2017-07-06T11:28:03.440Z,29.64
2017-07-06T11:29:03.813Z,28.78
2017-07-06T11:30:03.828Z,28.54
2017-07-06T11:31:03.867Z,28.67
2017-07-06T11:32:03.878Z,28.31
2017-07-06T11:33:18.539Z,28.07
2017-07-06T11:34:03.977Z,28.29
2017-07-06T11:35:04.299Z,27.87
2017-07-06T11:36:03.701Z,27.44
2017-07-06T11:38:04.119Z,27.12
2017-07-06T11:39:04.173Z,26.92
2017-07-06T11:40:04.151Z,27.19
2017-07-06T11:41:03.869Z,27.69
2017-07-06T11:42:04.210Z,27.69
2017-07-06T11:43:03.994Z,27.77
2017-07-06T11:44:04.611Z,27.51
2017-07-06T11:45:04.098Z,27.49
2017-07-06T11:46:18.946Z,27.54
2017-07-06T11:47:04.363Z,27.47
2017-07-06T11:48:04.403Z,27.24
2017-07-06T11:49:03.794Z,27.28
2017-07-06T11:50:04.459Z,27.27
2017-07-06T11:51:04.501Z,27.51
2017-07-06T11:52:04.200Z,27.82
2017-07-06T11:53:04.237Z,28.24
2017-07-06T11:54:04.470Z,28.51
2017-07-06T11:55:04.617Z,28.43
2017-07-06T11:56:04.327Z,28.25
2017-07-06T11:57:04.674Z,28.33
2017-07-06T11:58:04.718Z,27.74
2017-07-06T11:59:04.413Z,27.24
2017-07-06T12:00:04.827Z,27.06
2017-07-06T12:01:04.894Z,26.69
2017-07-06T12:02:19.109Z,26.69
2017-07-06T12:03:04.867Z,26.8
2017-07-06T12:04:19.177Z,26.85
2017-07-06T12:05:19.512Z,27.06
2017-07-06T12:07:04.969Z,26.8
2017-07-06T12:08:04.374Z,26.75
2017-07-06T12:09:04.778Z,27.1
2017-07-06T12:10:19.448Z,27.29
2017-07-06T12:11:05.158Z,27.4
2017-07-06T12:12:19.733Z,27.67
2017-07-06T12:13:04.520Z,27.74
2017-07-06T12:14:05.078Z,27.66
2017-07-06T12:15:04.889Z,27.85
2017-07-06T12:16:05.251Z,27.69
2017-07-06T12:17:05.322Z,27.99
2017-07-06T12:18:19.921Z,28.11
2017-07-06T12:19:05.029Z,28.07
2017-07-06T12:21:05.420Z,27.78
2017-07-06T12:22:05.114Z,27.63
2017-07-06T12:23:05.142Z,27.62
2017-07-06T12:24:05.807Z,27.66
2017-07-06T12:25:05.211Z,27.54
2017-07-06T12:26:05.246Z,27.36
2017-07-06T12:27:05.419Z,27.41
2017-07-06T12:29:20.246Z,27.18
2017-07-06T12:30:05.405Z,27.04
2017-07-06T12:31:05.870Z,27.07
2017-07-06T12:32:05.421Z,26.91
2017-07-06T12:33:05.767Z,27.03
2017-07-06T12:35:05.183Z,27.62
2017-07-06T12:37:05.993Z,28.14
2017-07-06T12:38:05.912Z,28.29
2017-07-06T12:39:05.956Z,28.18
2017-07-06T12:40:06.264Z,27.7
2017-07-06T12:41:06.013Z,26.97
2017-07-06T12:42:06.081Z,26.75
2017-07-06T12:43:05.442Z,26.76
2017-07-06T12:44:05.778Z,26.65
2017-07-06T12:45:20.730Z,26.72
2017-07-06T12:47:05.872Z,26.7
2017-07-06T12:48:06.013Z,26.67
2017-07-06T12:49:20.842Z,26.62
2017-07-06T12:50:20.890Z,26.63
2017-07-06T12:51:05.999Z,26.62
2017-07-06T12:52:06.010Z,26.69
2017-07-06T12:53:05.789Z,26.73
2017-07-06T12:54:06.083Z,26.69
2017-07-06T12:56:06.452Z,26.99
2017-07-06T12:57:06.553Z,27.21
2017-07-06T12:58:06.522Z,27.36
2017-07-06T12:59:06.227Z,27.47
2017-07-06T13:00:05.995Z,27.63
2017-07-06T13:01:06.294Z,27.77
2017-07-06T13:02:06.626Z,27.99
2017-07-06T13:03:06.349Z,28.33
2017-07-06T13:04:06.437Z,28.44
2017-07-06T13:05:06.418Z,28.12
2017-07-06T13:06:06.433Z,28.11
2017-07-06T13:07:06.792Z,27.94
2017-07-06T13:08:06.503Z,28.02
2017-07-06T13:09:06.850Z,28.04
2017-07-06T13:10:07.117Z,28
2017-07-06T13:11:06.906Z,28.14
2017-07-06T13:13:07.006Z,28.09
2017-07-06T13:14:06.783Z,28
2017-07-06T13:15:07.013Z,27.88
2017-07-06T13:16:07.416Z,27.94
2017-07-06T13:17:07.071Z,27.97
2017-07-06T13:18:07.152Z,28.02
2017-07-06T13:19:07.132Z,27.97
2017-07-06T13:20:21.561Z,27.94
2017-07-06T13:21:21.808Z,27.85
2017-07-06T13:22:06.602Z,27.94
2017-07-06T13:23:06.687Z,27.99
2017-07-06T13:24:07.027Z,27.99
2017-07-06T13:25:07.371Z,28.22
2017-07-06T13:26:07.034Z,28.43
2017-07-06T13:27:07.065Z,28.52
2017-07-06T13:28:07.084Z,28.74
2017-07-06T13:29:07.452Z,28.76
2017-07-06T13:30:07.343Z,28.9
2017-07-06T13:31:07.516Z,28.93
2017-07-06T13:32:06.899Z,28.85
2017-07-06T13:33:07.351Z,28.73
2017-07-06T13:35:07.601Z,28.68
2017-07-06T13:36:07.649Z,28.52
2017-07-06T13:37:22.332Z,28.44
2017-07-06T13:39:07.735Z,28.61